Morgan Hill, CA (95037)

7:49 AM PDT on August 27, 2016 (GMT -0700)
East Main Avenue | | Change Station

Elev 347 ft 37.13 °N, 121.65 °W | Updated 3 minutes ago

Overcast
Overcast
59.5 °F
Feels Like 59.5 °F
N
0.0
Wind Variable Wind from North
Gusts 0.6 mph

Today
High -- | Low -- °F
--% Chance of Precip.
Yesterday
High -- | Low -- °F
Precip. -- in
Pressure 29.99 in
Visibility 10.0 miles
Clouds Few 1000 ft
Mostly Cloudy 1500 ft
Overcast 1700 ft
Dew Point 54 °F
Humidity 81%
Rainfall 0.00 in
Snow Depth Not available.
6:33 AM 7:41 PM
Waning Crescent, 24% visible
METAR KSJC 271353Z 16006KT 10SM FEW010 BKN015 OVC017 17/12 A2998 RMK AO2 SLP153 T01670122
Pressure 29.99 in
Visibility 10.0 miles
Clouds Few 1000 ft
Mostly Cloudy 1500 ft
Overcast 1700 ft
Dew Point 54 °F
Humidity 81%
Rainfall 0.00 in
Snow Depth Not available.
6:33 AM 7:41 PM
Waning Crescent, 24% visible
METAR KSJC 271353Z 16006KT 10SM FEW010 BKN015 OVC017 17/12 A2998 RMK AO2 SLP153 T01670122

10-Day Weather Forecast

Almanac

Astronomy

Aug. 27, 2016 Rise Set
Actual Time
Civil Twilight
Nautical Twilight
Astronomical Twilight
Moon
Length of Visible Light
Length of Day
Tomorrow will be .
, % of the Moon is Illuminated

Today's Extremes

State Highs State Lows

Community

WunderPhotos

Upload Photos

1,935,344 photos uploaded!

WunderBlog® & News

Nearby

Air Quality

  Air Quality AQ Index Pollutant
Not available.

Snow Depth

Station Depth Elevation

Earthquake Activity

City Distance Mag. Time & Date
Minimum magnitude displayed is 2.5.

Coastal Water Temperatures

Place Temperature

Stations

Nearby Weather Stations

Station Location Temp. Windchill Dew Point Humidity Wind Precip. Elev Updated Type
                   

Watches & Warnings

There are currently no watches in effect.